Time,TemperatureF,DewpointF,PressureIn,WindDirection,WindDirectionDegrees,WindSpeedMPH,WindSpeedGustMPH,Humidity,HourlyPrecipIn,Conditions,Clouds,dailyrainin,SoftwareType,DateUTC
2013-02-26 00:00:00,30.4,19.0,30.13,NNW,342,0.0,0.0,62,0.00,,---,0.00,VWS V14.01,2013-02-26 05:00:00,
2013-02-26 00:01:00,30.4,19.0,30.13,NNW,342,0.0,0.0,62,0.00,,---,0.00,VWS V14.01,2013-02-26 05:01:00,
2013-02-26 00:06:00,30.3,18.9,30.13,NNW,342,0.0,0.0,62,0.00,,---,0.00,VWS V14.01,2013-02-26 05:06:00,
2013-02-26 00:11:00,30.3,18.9,30.13,NNW,333,0.0,0.0,62,0.00,,---,0.00,VWS V14.01,2013-02-26 05:11:00,
2013-02-26 00:16:00,30.1,19.0,30.11,WNW,302,0.0,0.0,63,0.00,,---,0.00,VWS V14.01,2013-02-26 05:16:00,
2013-02-26 00:21:00,30.1,19.0,30.11,North,360,0.0,0.0,63,0.00,,---,0.00,VWS V14.01,2013-02-26 05:21:00,
2013-02-26 00:26:00,30.1,19.0,30.11,North,360,0.0,0.0,63,0.00,,---,0.00,VWS V14.01,2013-02-26 05:26:00,
2013-02-26 00:31:00,30.1,19.4,30.11,North,360,0.0,0.0,64,0.00,,---,0.00,VWS V14.01,2013-02-26 05:31:00,
2013-02-26 00:36:00,30.1,19.4,30.11,North,360,0.0,0.0,64,0.00,,---,0.00,VWS V14.01,2013-02-26 05:36:00,
2013-02-26 00:41:00,30.1,19.4,30.11,NW,326,0.0,0.0,64,0.00,,---,0.00,VWS V14.01,2013-02-26 05:41:00,
2013-02-26 00:46:00,30.1,19.8,30.10,NNW,346,0.0,0.0,65,0.00,,---,0.00,VWS V14.01,2013-02-26 05:46:00,
2013-02-26 00:51:00,30.0,19.7,30.10,North,351,0.0,0.0,65,0.00,,---,0.00,VWS V14.01,2013-02-26 05:51:00,
2013-02-26 00:56:00,30.0,19.7,30.10,NNW,346,0.0,0.0,65,0.00,,---,0.00,VWS V14.01,2013-02-26 05:56:00,
2013-02-26 01:01:00,30.0,19.7,30.09,WNW,302,0.0,0.0,65,0.00,,---,0.00,VWS V14.01,2013-02-26 06:01:00,
2013-02-26 01:06:00,30.0,19.7,30.09,NNW,346,0.0,0.0,65,0.00,,---,0.00,VWS V14.01,2013-02-26 06:06:00,
2013-02-26 01:12:00,30.0,19.7,30.09,NW,318,0.0,0.0,65,0.00,,---,0.00,VWS V14.01,2013-02-26 06:12:00,
2013-02-26 01:17:00,29.8,19.5,30.09,NW,319,0.0,0.0,65,0.00,,---,0.00,VWS V14.01,2013-02-26 06:17:00,
2013-02-26 01:22:00,29.7,19.8,30.09,NW,319,0.0,0.0,66,0.00,,---,0.00,VWS V14.01,2013-02-26 06:22:00,
2013-02-26 01:27:00,29.5,19.6,30.09,NW,319,0.0,0.0,66,0.00,,---,0.00,VWS V14.01,2013-02-26 06:27:00,
2013-02-26 01:32:00,29.5,19.9,30.09,NW,319,0.0,0.0,67,0.00,,---,0.00,VWS V14.01,2013-02-26 06:32:00,
2013-02-26 01:37:00,29.4,19.8,30.09,NW,319,0.0,0.0,67,0.00,,---,0.00,VWS V14.01,2013-02-26 06:37:00,
2013-02-26 01:42:00,29.3,19.7,30.09,NW,319,0.0,0.0,67,0.00,,---,0.00,VWS V14.01,2013-02-26 06:42:00,
2013-02-26 01:47:00,29.3,19.7,30.09,NW,319,0.0,0.0,67,0.00,,---,0.00,VWS V14.01,2013-02-26 06:47:00,
2013-02-26 01:52:00,29.1,19.9,30.09,NW,317,0.0,0.0,68,0.00,,---,0.00,VWS V14.01,2013-02-26 06:52:00,
2013-02-26 01:57:00,29.1,19.9,30.09,NW,309,0.0,0.0,68,0.00,,---,0.00,VWS V14.01,2013-02-26 06:57:00,
2013-02-26 02:02:00,29.1,19.9,30.10,NW,309,0.0,0.0,68,0.00,,---,0.00,VWS V14.01,2013-02-26 07:02:00,
2013-02-26 02:07:00,29.0,19.8,30.10,NW,309,0.0,0.0,68,0.00,,---,0.00,VWS V14.01,2013-02-26 07:07:00,
2013-02-26 02:12:00,29.0,20.1,30.10,NW,310,0.0,0.0,69,0.00,,---,0.00,VWS V14.01,2013-02-26 07:12:00,
2013-02-26 02:17:00,28.8,19.9,30.10,NW,309,0.0,0.0,69,0.00,,---,0.00,VWS V14.01,2013-02-26 07:17:00,
2013-02-26 02:22:00,28.8,20.3,30.10,NW,310,0.0,0.0,70,0.00,,---,0.00,VWS V14.01,2013-02-26 07:22:00,
2013-02-26 02:27:00,28.7,20.2,30.10,WNW,300,0.0,0.0,70,0.00,,---,0.00,VWS V14.01,2013-02-26 07:27:00,
2013-02-26 02:32:00,28.7,20.2,30.09,WNW,300,0.0,0.0,70,0.00,,---,0.00,VWS V14.01,2013-02-26 07:32:00,
2013-02-26 02:37:00,28.5,20.3,30.09,WNW,294,0.0,0.0,71,0.00,,---,0.00,VWS V14.01,2013-02-26 07:37:00,
2013-02-26 02:43:00,28.4,20.2,30.09,WNW,302,0.0,0.0,71,0.00,,---,0.00,VWS V14.01,2013-02-26 07:43:00,
2013-02-26 02:48:00,28.4,20.5,30.08,WNW,302,0.0,0.0,72,0.00,,---,0.00,VWS V14.01,2013-02-26 07:48:00,
2013-02-26 02:53:00,28.4,20.5,30.08,WNW,297,0.0,0.0,72,0.00,,---,0.00,VWS V14.01,2013-02-26 07:53:00,
2013-02-26 02:58:00,28.4,20.5,30.08,NNW,328,0.0,0.0,72,0.00,,---,0.00,VWS V14.01,2013-02-26 07:58:00,
2013-02-26 03:03:00,28.4,20.5,30.07,NW,309,0.0,0.0,72,0.00,,---,0.00,VWS V14.01,2013-02-26 08:03:00,
2013-02-26 03:08:00,28.4,20.5,30.07,WNW,302,0.0,0.0,72,0.00,,---,0.00,VWS V14.01,2013-02-26 08:08:00,
2013-02-26 03:13:00,28.4,20.9,30.07,NNW,330,0.0,0.0,73,0.00,,---,0.00,VWS V14.01,2013-02-26 08:13:00,
2013-02-26 03:18:00,28.4,20.9,30.07,NW,325,0.0,0.0,73,0.00,,---,0.00,VWS V14.01,2013-02-26 08:18:00,
2013-02-26 03:23:00,28.4,20.9,30.07,NNW,348,0.0,0.0,73,0.00,,---,0.00,VWS V14.01,2013-02-26 08:23:00,
2013-02-26 06:02:00,29.4,20.8,29.98,NW,312,0.0,0.0,70,0.00,,---,0.00,VWS V14.01,2013-02-26 11:02:00,
2013-02-26 06:08:00,29.4,20.8,29.98,NW,321,0.0,0.0,70,0.00,,---,0.00,VWS V14.01,2013-02-26 11:08:00,
2013-02-26 06:13:00,29.5,20.9,29.98,NW,313,0.0,0.0,70,0.00,,---,0.00,VWS V14.01,2013-02-26 11:13:00,
2013-02-26 06:18:00,29.5,20.9,29.98,NW,325,0.0,0.0,70,0.00,,---,0.00,VWS V14.01,2013-02-26 11:18:00,
2013-02-26 06:23:00,29.5,20.9,29.98,NW,319,0.0,0.0,70,0.00,,---,0.00,VWS V14.01,2013-02-26 11:23:00,
2013-02-26 06:28:00,29.5,20.9,29.98,NW,313,0.0,0.0,70,0.00,,---,0.00,VWS V14.01,2013-02-26 11:28:00,
2013-02-26 06:33:00,29.7,21.1,29.97,NW,322,0.0,0.0,70,0.00,,---,0.00,VWS V14.01,2013-02-26 11:33:00,
2013-02-26 06:38:00,29.8,21.2,29.97,NW,321,0.0,0.0,70,0.00,,---,0.00,VWS V14.01,2013-02-26 11:38:00,
2013-02-26 06:43:00,29.8,21.2,29.97,NW,307,0.0,0.0,70,0.00,,---,0.00,VWS V14.01,2013-02-26 11:43:00,
2013-02-26 06:48:00,29.8,21.2,29.98,NW,325,0.0,0.0,70,0.00,,---,0.00,VWS V14.01,2013-02-26 11:48:00,
2013-02-26 06:53:00,30.0,21.4,29.98,NW,314,0.0,0.0,70,0.00,,---,0.00,VWS V14.01,2013-02-26 11:53:00,